createdAt,value
2022-12-10T00:02:28.646Z,11.82
2022-12-10T00:05:14.619Z,11.52
2022-12-10T00:08:00.767Z,10.73
2022-12-10T00:10:46.770Z,11.32
2022-12-10T00:13:33.322Z,10.25
2022-12-10T00:16:20.757Z,11.07
2022-12-10T00:19:07.192Z,11.00
2022-12-10T00:21:53.080Z,9.52
2022-12-10T00:24:39.282Z,9.63
2022-12-10T00:27:25.631Z,10.30
2022-12-10T00:30:13.135Z,9.35
2022-12-10T00:33:00.087Z,9.40
2022-12-10T00:35:46.437Z,10.00
2022-12-10T00:38:33.201Z,10.30
2022-12-10T00:41:19.596Z,9.75
2022-12-10T00:44:06.177Z,10.07
2022-12-10T00:46:52.623Z,10.00
2022-12-10T00:49:39.133Z,9.57
2022-12-10T00:52:25.716Z,9.13
2022-12-10T00:55:11.833Z,8.90
2022-12-10T00:57:58.372Z,8.57
2022-12-10T01:00:44.607Z,8.55
2022-12-10T01:03:30.821Z,8.13
2022-12-10T01:06:19.086Z,8.18
2022-12-10T01:09:06.921Z,7.82
2022-12-10T01:11:53.993Z,8.63
2022-12-10T01:14:40.957Z,9.27
2022-12-10T01:17:29.098Z,8.40
2022-12-10T01:20:15.498Z,8.52
2022-12-10T01:23:02.074Z,8.80
2022-12-10T01:25:48.098Z,8.00
2022-12-10T01:28:35.274Z,9.10
2022-12-10T01:31:23.280Z,9.15
2022-12-10T01:34:12.793Z,7.85
2022-12-10T01:36:59.802Z,9.38
2022-12-10T01:39:46.142Z,8.35
2022-12-10T01:42:32.404Z,7.90
2022-12-10T01:45:19.427Z,8.73
2022-12-10T01:48:13.648Z,8.63
2022-12-10T01:50:59.935Z,8.00
2022-12-10T01:53:47.136Z,8.30
2022-12-10T01:56:35.969Z,8.65
2022-12-10T01:59:26.564Z,8.25
2022-12-10T02:02:31.939Z,8.02
2022-12-10T02:05:18.194Z,8.30
2022-12-10T02:08:08.326Z,8.48
2022-12-10T02:11:00.478Z,8.50
2022-12-10T02:13:58.507Z,8.40
2022-12-10T02:17:11.142Z,7.70
2022-12-10T02:19:57.170Z,8.18
2022-12-10T02:22:48.819Z,7.50
2022-12-10T02:25:41.286Z,6.93
2022-12-10T02:28:36.400Z,6.70
2022-12-10T02:31:28.389Z,6.47
2022-12-10T02:34:16.253Z,6.95
2022-12-10T02:37:05.367Z,7.07
2022-12-10T02:39:55.381Z,7.03
2022-12-10T02:42:42.724Z,7.22
2022-12-10T02:45:30.338Z,6.95
2022-12-10T02:48:17.789Z,6.75
2022-12-10T02:51:04.289Z,6.57
2022-12-10T02:54:00.533Z,5.75
2022-12-10T02:56:54.218Z,5.30
2022-12-10T03:00:04.388Z,5.18
2022-12-10T03:03:04.343Z,5.35
2022-12-10T03:05:57.561Z,4.30
2022-12-10T03:08:55.288Z,5.00
2022-12-10T03:11:43.434Z,4.90
2022-12-10T03:14:34.998Z,4.45
2022-12-10T03:17:21.307Z,4.30
2022-12-10T03:20:12.984Z,4.35
2022-12-10T03:22:59.998Z,4.72
2022-12-10T03:25:46.747Z,4.45
2022-12-10T03:28:35.388Z,4.90
2022-12-10T03:31:22.034Z,4.93
2022-12-10T03:34:08.826Z,4.40
2022-12-10T03:36:55.226Z,4.53
2022-12-10T03:39:42.915Z,5.05
2022-12-10T03:42:29.336Z,4.40
2022-12-10T03:45:15.675Z,4.75
2022-12-10T03:48:01.950Z,4.55
2022-12-10T03:50:47.947Z,5.03
2022-12-10T03:53:34.452Z,4.78
2022-12-10T03:56:21.541Z,4.55
2022-12-10T03:59:07.814Z,5.00
2022-12-10T04:01:54.082Z,4.70
2022-12-10T04:04:41.343Z,5.10
2022-12-10T04:07:27.382Z,6.00
2022-12-10T04:10:13.846Z,4.78
2022-12-10T04:13:38.591Z,5.60
2022-12-10T04:16:29.070Z,5.13
2022-12-10T04:19:16.536Z,5.90
2022-12-10T04:22:21.526Z,5.50
2022-12-10T04:25:26.346Z,5.60
2022-12-10T04:28:12.648Z,5.70
2022-12-10T04:30:59.398Z,5.30
2022-12-10T04:33:45.592Z,6.07
2022-12-10T04:36:31.682Z,5.78
2022-12-10T04:39:17.950Z,6.15
2022-12-10T04:42:04.081Z,5.10
2022-12-10T04:44:50.697Z,6.38
2022-12-10T04:47:37.517Z,5.20
2022-12-10T04:50:23.990Z,5.70
2022-12-10T04:53:10.087Z,6.32
2022-12-10T04:55:56.299Z,6.22
2022-12-10T04:58:42.886Z,6.35
2022-12-10T05:01:29.904Z,5.80
2022-12-10T05:04:17.444Z,6.00
2022-12-10T05:07:03.926Z,5.78
2022-12-10T05:09:50.553Z,7.45
2022-12-10T05:12:36.756Z,5.82
2022-12-10T05:15:23.508Z,5.25
2022-12-10T05:18:10.067Z,5.97
2022-12-10T05:20:56.300Z,5.13
2022-12-10T05:23:44.778Z,5.53
2022-12-10T05:26:30.783Z,4.57
2022-12-10T05:29:16.939Z,5.05
2022-12-10T05:32:04.205Z,4.60
2022-12-10T05:34:50.578Z,4.82
2022-12-10T05:37:36.859Z,4.93
2022-12-10T05:40:23.028Z,5.00
2022-12-10T05:43:10.294Z,4.50
2022-12-10T05:46:00.974Z,4.25
2022-12-10T05:48:47.139Z,3.55
2022-12-10T05:51:34.302Z,3.25
2022-12-10T05:54:21.182Z,3.35
2022-12-10T05:57:07.530Z,3.05
2022-12-10T05:59:54.310Z,3.05
2022-12-10T06:02:40.557Z,2.95
2022-12-10T06:05:26.961Z,3.08
2022-12-10T06:08:13.288Z,3.67
2022-12-10T06:11:02.772Z,3.13
2022-12-10T06:13:54.506Z,3.15
2022-12-10T06:16:42.793Z,3.92
2022-12-10T06:19:29.121Z,3.78
2022-12-10T06:22:15.237Z,3.40
2022-12-10T06:25:01.371Z,4.00
2022-12-10T06:27:48.497Z,3.80
2022-12-10T06:30:35.437Z,3.78
2022-12-10T06:33:21.773Z,3.83
2022-12-10T06:36:09.017Z,4.00
2022-12-10T06:38:55.495Z,3.72
2022-12-10T06:41:44.980Z,4.05
2022-12-10T06:44:31.291Z,4.47
2022-12-10T06:47:17.446Z,4.28
2022-12-10T06:50:03.677Z,4.40
2022-12-10T06:52:54.857Z,4.90
2022-12-10T06:55:41.299Z,4.68
2022-12-10T06:58:29.441Z,4.20
2022-12-10T07:01:23.019Z,4.65
2022-12-10T07:04:10.671Z,4.25
2022-12-10T07:06:56.971Z,4.40
2022-12-10T07:09:43.223Z,4.57
2022-12-10T07:12:29.575Z,4.78
2022-12-10T07:15:15.695Z,4.78
2022-12-10T07:18:01.853Z,4.45
2022-12-10T07:20:48.094Z,4.80
2022-12-10T07:23:34.069Z,5.13
2022-12-10T07:26:20.351Z,5.53
2022-12-10T07:29:07.025Z,5.55
2022-12-10T07:31:53.209Z,5.00
2022-12-10T07:34:39.905Z,5.85
2022-12-10T07:37:26.205Z,6.30
2022-12-10T07:40:12.733Z,5.60
2022-12-10T07:42:59.658Z,5.78
2022-12-10T07:45:45.936Z,7.82
2022-12-10T07:48:32.160Z,6.63
2022-12-10T07:51:19.398Z,7.47
2022-12-10T07:54:05.555Z,7.40
2022-12-10T07:56:51.575Z,7.63
2022-12-10T07:59:38.320Z,8.13
2022-12-10T08:02:24.435Z,9.02
2022-12-10T08:05:10.748Z,9.93
2022-12-10T08:08:01.242Z,9.50
2022-12-10T08:10:50.275Z,11.30
2022-12-10T08:13:36.514Z,11.52
2022-12-10T08:16:27.038Z,13.27
2022-12-10T08:19:19.402Z,13.00
2022-12-10T08:22:07.932Z,13.52
2022-12-10T08:24:53.902Z,14.38
2022-12-10T08:27:39.860Z,15.05
2022-12-10T08:30:26.604Z,15.82
2022-12-10T08:33:13.073Z,18.55
2022-12-10T08:36:00.648Z,17.58
2022-12-10T08:38:49.199Z,17.10
2022-12-10T08:41:35.917Z,18.23
2022-12-10T08:44:22.058Z,17.52
2022-12-10T08:47:08.206Z,17.75
2022-12-10T08:49:54.406Z,19.63
2022-12-10T08:52:40.532Z,21.73
2022-12-10T08:55:26.804Z,21.67
2022-12-10T08:58:13.253Z,23.38
2022-12-10T09:01:00.369Z,20.40
2022-12-10T09:03:46.898Z,16.83
2022-12-10T09:06:33.911Z,16.95
2022-12-10T09:09:20.076Z,14.57
2022-12-10T09:12:06.439Z,15.23
2022-12-10T09:14:52.725Z,14.32
2022-12-10T09:17:42.227Z,13.00
2022-12-10T09:20:28.472Z,13.38
2022-12-10T09:23:14.815Z,12.40
2022-12-10T09:26:00.897Z,12.15
2022-12-10T09:28:47.847Z,13.07
2022-12-10T09:31:34.245Z,12.38
2022-12-10T09:34:20.500Z,12.77
2022-12-10T09:37:06.940Z,13.40
2022-12-10T09:39:53.636Z,13.50
2022-12-10T09:42:46.180Z,12.75
2022-12-10T09:45:37.574Z,13.90
2022-12-10T09:48:31.551Z,15.18
2022-12-10T09:51:25.813Z,13.50
2022-12-10T09:54:41.197Z,13.38
2022-12-10T09:57:31.363Z,13.68
2022-12-10T10:00:20.676Z,12.35
2022-12-10T10:03:07.623Z,12.88
2022-12-10T10:05:56.317Z,12.07
2022-12-10T10:09:02.967Z,13.98
2022-12-10T10:12:04.449Z,14.38
2022-12-10T10:15:17.617Z,12.98
2022-12-10T10:18:06.771Z,13.38
2022-12-10T10:20:53.937Z,13.13
2022-12-10T10:23:41.272Z,13.38
2022-12-10T10:26:28.649Z,13.18
2022-12-10T10:29:17.970Z,12.60
2022-12-10T10:32:18.819Z,13.23
2022-12-10T10:35:06.218Z,11.63
2022-12-10T10:37:53.957Z,12.15
2022-12-10T10:40:44.799Z,11.57
2022-12-10T10:43:36.294Z,12.00
2022-12-10T10:46:25.742Z,11.63
2022-12-10T10:49:32.711Z,11.95
2022-12-10T10:52:19.327Z,11.25
2022-12-10T10:55:05.958Z,11.25
2022-12-10T10:57:53.415Z,11.27
2022-12-10T11:00:39.891Z,10.73
2022-12-10T11:03:27.005Z,11.10
2022-12-10T11:06:14.222Z,12.25
2022-12-10T11:09:00.635Z,11.70
2022-12-10T11:11:51.576Z,11.38
2022-12-10T11:14:44.791Z,12.50
2022-12-10T11:17:31.504Z,12.23
2022-12-10T11:20:18.143Z,12.18
2022-12-10T11:23:10.045Z,13.15
2022-12-10T11:26:16.519Z,13.07
2022-12-10T11:29:29.592Z,12.23
2022-12-10T11:32:15.587Z,13.37
2022-12-10T11:35:12.732Z,12.43
2022-12-10T11:37:58.875Z,11.93
2022-12-10T11:40:49.631Z,11.35
2022-12-10T11:43:44.488Z,11.90
2022-12-10T11:46:33.738Z,12.43
2022-12-10T11:49:30.443Z,12.63
2022-12-10T11:52:19.854Z,11.68
2022-12-10T11:55:16.135Z,12.45
2022-12-10T11:58:19.699Z,12.88
2022-12-10T12:01:07.209Z,13.00
2022-12-10T12:03:56.492Z,12.77
2022-12-10T12:06:54.891Z,13.48
2022-12-10T12:09:41.140Z,12.77
2022-12-10T12:12:40.892Z,13.05
2022-12-10T12:15:27.532Z,12.38
2022-12-10T12:18:23.226Z,11.60
2022-12-10T12:21:12.208Z,12.95
2022-12-10T12:24:04.568Z,12.02
2022-12-10T12:26:55.592Z,13.57
2022-12-10T12:29:47.679Z,12.95
2022-12-10T12:32:42.528Z,13.13
2022-12-10T12:35:35.076Z,12.73
2022-12-10T12:38:27.889Z,13.80
2022-12-10T12:44:04.995Z,13.00
2022-12-10T12:46:52.069Z,13.48
2022-12-10T12:49:40.284Z,14.48
2022-12-10T12:52:26.407Z,14.15
2022-12-10T12:55:20.935Z,15.13
2022-12-10T12:58:07.361Z,13.95
2022-12-10T13:00:55.885Z,15.43
2022-12-10T13:03:42.790Z,15.55
2022-12-10T13:06:33.847Z,14.02
2022-12-10T13:09:27.881Z,16.02
2022-12-10T13:12:17.597Z,18.27
2022-12-10T13:15:24.203Z,15.45
2022-12-10T13:18:19.084Z,16.20
2022-12-10T13:21:26.945Z,16.70
2022-12-10T13:24:14.818Z,17.48
2022-12-10T13:27:20.901Z,16.70
2022-12-10T13:30:25.938Z,17.50
2022-12-10T13:33:16.001Z,16.35
2022-12-10T13:36:08.929Z,18.23
2022-12-10T13:39:05.756Z,17.52
2022-12-10T13:42:25.762Z,17.65
2022-12-10T13:45:24.333Z,19.20
2022-12-10T13:48:23.555Z,19.27
2022-12-10T13:51:16.118Z,19.42
2022-12-10T13:54:18.609Z,19.17
2022-12-10T13:57:11.365Z,18.77
2022-12-10T13:59:59.341Z,19.07
2022-12-10T14:02:56.845Z,20.02
2022-12-10T14:05:43.128Z,20.20
2022-12-10T14:08:31.312Z,19.38
2022-12-10T14:11:23.275Z,21.05
2022-12-10T14:14:13.365Z,20.13
2022-12-10T14:17:06.507Z,19.42
2022-12-10T14:19:56.498Z,19.00
2022-12-10T14:22:47.412Z,20.63
2022-12-10T14:25:42.777Z,20.73
2022-12-10T14:28:34.505Z,21.10
2022-12-10T14:31:23.187Z,20.20
2022-12-10T14:34:10.481Z,19.67
2022-12-10T14:37:03.245Z,19.25
2022-12-10T14:39:49.504Z,19.40
2022-12-10T14:42:35.806Z,20.15
2022-12-10T14:45:22.336Z,19.20
2022-12-10T14:48:10.153Z,20.52
2022-12-10T14:50:58.289Z,19.55
2022-12-10T14:53:44.526Z,20.58
2022-12-10T14:56:35.993Z,21.48
2022-12-10T14:59:31.229Z,21.45
2022-12-10T15:02:38.059Z,22.10
2022-12-10T15:05:25.821Z,22.27
2022-12-10T15:08:17.030Z,23.08
2022-12-10T15:11:04.660Z,22.63
2022-12-10T15:13:52.536Z,24.52
2022-12-10T15:16:45.963Z,23.63
2022-12-10T15:19:36.573Z,25.60
2022-12-10T15:22:23.754Z,26.58
2022-12-10T15:25:22.392Z,27.73
2022-12-10T15:28:23.171Z,27.20
2022-12-10T15:31:15.541Z,28.85
2022-12-10T15:34:07.835Z,30.75
2022-12-10T15:36:55.501Z,33.47
2022-12-10T15:39:47.088Z,29.50
2022-12-10T15:42:46.521Z,28.95
2022-12-10T15:45:40.393Z,28.85
2022-12-10T15:48:28.672Z,30.25
2022-12-10T15:51:15.505Z,30.73
2022-12-10T15:54:01.954Z,30.83
2022-12-10T15:56:47.938Z,33.08
2022-12-10T15:59:34.756Z,31.52
2022-12-10T16:02:21.080Z,32.20
2022-12-10T16:05:19.816Z,33.80
2022-12-10T16:08:15.629Z,35.30
2022-12-10T16:11:04.294Z,36.53
2022-12-10T16:13:52.683Z,36.78
2022-12-10T16:16:39.268Z,37.38
2022-12-10T16:19:25.711Z,37.05
2022-12-10T16:22:12.256Z,37.80
2022-12-10T16:24:58.459Z,37.70
2022-12-10T16:27:45.805Z,38.05
2022-12-10T16:30:47.154Z,39.83
2022-12-10T16:33:33.856Z,38.38
2022-12-10T16:36:20.624Z,39.88
2022-12-10T16:39:06.821Z,40.08
2022-12-10T16:41:54.485Z,38.95
2022-12-10T16:44:40.880Z,40.35
2022-12-10T16:47:27.323Z,39.97
2022-12-10T16:50:14.332Z,42.42
2022-12-10T16:53:03.595Z,42.78
2022-12-10T16:55:50.095Z,43.97
2022-12-10T16:58:36.280Z,43.08
2022-12-10T17:01:24.237Z,43.83
2022-12-10T17:04:11.133Z,42.22
2022-12-10T17:06:57.165Z,43.50
2022-12-10T17:09:43.713Z,43.80
2022-12-10T17:12:31.596Z,42.63
2022-12-10T17:15:17.899Z,43.13
2022-12-10T17:18:04.233Z,44.22
2022-12-10T17:20:50.823Z,43.75
2022-12-10T17:23:37.179Z,44.95
2022-12-10T17:26:27.459Z,44.90
2022-12-10T17:29:15.765Z,44.95
2022-12-10T17:32:02.173Z,44.63
2022-12-10T17:34:48.597Z,42.40
2022-12-10T17:37:37.461Z,41.88
2022-12-10T17:40:24.827Z,42.63
2022-12-10T17:43:11.275Z,43.92
2022-12-10T17:45:58.485Z,43.10
2022-12-10T17:48:45.076Z,42.63
2022-12-10T17:51:32.918Z,40.00
2022-12-10T17:54:19.151Z,40.33
2022-12-10T17:57:11.473Z,41.78
2022-12-10T17:59:57.974Z,41.08
2022-12-10T18:02:44.789Z,41.28
2022-12-10T18:05:31.001Z,41.25
2022-12-10T18:08:23.552Z,39.78
2022-12-10T18:11:11.686Z,42.55
2022-12-10T18:13:58.038Z,39.47
2022-12-10T18:16:44.686Z,40.38
2022-12-10T18:19:31.116Z,37.90
2022-12-10T18:22:17.814Z,40.67
2022-12-10T18:25:04.517Z,37.03
2022-12-10T18:27:51.524Z,36.70
2022-12-10T18:30:37.784Z,38.20
2022-12-10T18:33:24.139Z,35.38
2022-12-10T18:36:13.621Z,37.50
2022-12-10T18:39:01.006Z,35.25
2022-12-10T18:41:47.469Z,32.15
2022-12-10T18:44:34.273Z,30.20
2022-12-10T18:47:20.861Z,29.75
2022-12-10T18:50:13.816Z,27.20
2022-12-10T18:53:00.215Z,26.77
2022-12-10T18:55:46.278Z,26.50
2022-12-10T18:58:32.514Z,25.33
2022-12-10T19:01:20.432Z,24.73
2022-12-10T19:04:07.089Z,24.67
2022-12-10T19:06:53.307Z,24.73
2022-12-10T19:09:40.642Z,24.83
2022-12-10T19:12:27.985Z,25.15
2022-12-10T19:15:15.303Z,28.00
2022-12-10T19:18:02.840Z,26.90
2022-12-10T19:20:54.502Z,28.13
2022-12-10T19:23:43.409Z,26.85
2022-12-10T19:26:33.336Z,28.35
2022-12-10T19:29:20.824Z,28.23
2022-12-10T19:32:07.405Z,27.38
2022-12-10T19:34:53.680Z,28.98
2022-12-10T19:37:40.818Z,27.90
2022-12-10T19:40:30.077Z,29.00
2022-12-10T19:43:16.354Z,28.15
2022-12-10T19:46:02.480Z,27.45
2022-12-10T19:48:48.782Z,27.02
2022-12-10T19:51:34.935Z,27.58
2022-12-10T19:54:21.297Z,28.60
2022-12-10T19:57:10.502Z,26.73
2022-12-10T19:59:57.443Z,27.67
2022-12-10T20:02:44.191Z,27.73
2022-12-10T20:05:30.626Z,28.13
2022-12-10T20:08:16.861Z,30.27
2022-12-10T20:11:02.944Z,29.77
2022-12-10T20:13:49.094Z,27.77
2022-12-10T20:16:35.354Z,25.92
2022-12-10T20:19:22.972Z,26.52
2022-12-10T20:22:09.069Z,26.02
2022-12-10T20:24:55.224Z,24.83
2022-12-10T20:27:42.145Z,25.58
2022-12-10T20:30:29.648Z,24.58
2022-12-10T20:33:44.710Z,24.65
2022-12-10T20:36:26.506Z,24.15
2022-12-10T20:39:23.201Z,23.88
2022-12-10T20:42:09.471Z,23.55
2022-12-10T20:44:56.217Z,22.92
2022-12-10T20:47:42.670Z,24.80
2022-12-10T20:50:29.037Z,27.38
2022-12-10T20:53:15.192Z,28.00
2022-12-10T20:56:02.646Z,25.90
2022-12-10T20:58:49.118Z,26.98
2022-12-10T21:01:35.857Z,27.58
2022-12-10T21:04:22.563Z,26.30
2022-12-10T21:07:10.235Z,24.77
2022-12-10T21:09:56.495Z,25.98
2022-12-10T21:12:42.470Z,25.10
2022-12-10T21:15:29.068Z,23.55
2022-12-10T21:18:16.150Z,23.30
2022-12-10T21:21:02.303Z,23.50
2022-12-10T21:23:48.793Z,22.90
2022-12-10T21:26:36.997Z,22.45
2022-12-10T21:29:25.337Z,21.60
2022-12-10T21:32:11.751Z,21.88
2022-12-10T21:34:58.589Z,20.42
2022-12-10T21:37:44.964Z,20.10
2022-12-10T21:40:31.108Z,20.45
2022-12-10T21:43:21.623Z,20.33
2022-12-10T21:46:10.265Z,18.10
2022-12-10T21:48:56.549Z,16.88
2022-12-10T21:51:42.590Z,17.23
2022-12-10T21:54:28.801Z,16.40
2022-12-10T21:57:15.042Z,17.73
2022-12-10T22:00:01.089Z,16.80
2022-12-10T22:02:47.574Z,17.00
2022-12-10T22:05:34.202Z,17.55
2022-12-10T22:08:20.788Z,16.23
2022-12-10T22:11:08.291Z,16.73
2022-12-10T22:13:55.113Z,16.98
2022-12-10T22:16:47.859Z,17.88
2022-12-10T22:19:34.469Z,18.17
2022-12-10T22:22:20.955Z,17.80
2022-12-10T22:25:07.530Z,18.08
2022-12-10T22:27:54.231Z,18.20
2022-12-10T22:30:41.278Z,16.85
2022-12-10T22:33:27.473Z,16.98
2022-12-10T22:36:13.859Z,16.77
2022-12-10T22:39:00.385Z,17.25
2022-12-10T22:41:46.513Z,16.65
2022-12-10T22:44:32.704Z,17.42
2022-12-10T22:47:19.005Z,16.20
2022-12-10T22:50:06.066Z,14.32
2022-12-10T22:52:52.319Z,15.93
2022-12-10T22:55:38.310Z,15.85
2022-12-10T22:58:24.490Z,13.60
2022-12-10T23:01:17.612Z,11.00
2022-12-10T23:04:04.118Z,10.63
2022-12-10T23:06:51.023Z,11.15
2022-12-10T23:09:39.885Z,10.68
2022-12-10T23:12:44.540Z,12.02
2022-12-10T23:15:31.013Z,12.10
2022-12-10T23:18:17.507Z,12.98
2022-12-10T23:21:03.879Z,12.38
2022-12-10T23:23:50.062Z,13.02
2022-12-10T23:26:40.082Z,11.07
2022-12-10T23:29:29.200Z,11.27
2022-12-10T23:32:15.365Z,8.48
2022-12-10T23:35:01.959Z,8.27
2022-12-10T23:37:49.123Z,8.20
2022-12-10T23:40:35.517Z,8.10
2022-12-10T23:43:21.720Z,7.70
2022-12-10T23:46:08.736Z,7.28
2022-12-10T23:48:55.343Z,8.32
2022-12-10T23:51:41.386Z,8.20
2022-12-10T23:54:27.433Z,7.10
2022-12-10T23:57:13.665Z,7.75
2022-12-10T23:59:59.922Z,7.60
